ZBAAZBTJ

Guest
Details From ZBAA - CAPITAL INTL
To ZBTJ - BINHAI
Flight Number -
Tags generated
Created
Modified
Stats Distance 69 nm / 129 km
Max Altitude 5,400 ft / 1,646 m
Waypoints 3
Social Downloads 6
Likes 0
Share VATSIM

Download

Looking for another format? Having issues loading an existing format? Contact us
Advertisement - Login to hide

Notes

Basic altitude profile: - Ascent Rate: 2500ft/min - Ascent Speed: 250kts - Cruise Altitude: 35000ft - Cruise Speed: 420kts - Descent Rate: 1500ft/min - Descent Speed: 250kts Options: - Use NATs: yes - Use PACOTS: yes - Use low airways: yes - Use high airways: yes

Route

ZBAA WFNB ZBTJ

ID Type Via Altitude Latitude Longitude Leg Dist Tot Dist Heading (true) Name
O ZBAA APT - 0 ft / 0 m 40.08012˚ 116.58456˚ - 0 nm - CAPITAL INTL
WFNB APT - 5,400 ft / 1,646 m 39.95000˚ 116.86667˚ 15 nm 15 nm 121° / 121° -
O ZBTJ APT - 0 ft / 0 m 39.12435˚ 117.34618˚ 54 nm 69 nm 156° / 156° BINHAI

Altitude Profile

Advertisement - Login to hide

ZBAA

Details ICAO ZBAA (PEK)
Name CAPITAL INTL
Region China
Timezone Asia/Shanghai (UTC+8.0)
Stats Elevation 116 ft / 35 m (AMSL)
Location 40.080118° 116.584563°
Runways 2
Magnetic Variation 6.952° W

METAR

ZBAA 111330Z 03004MPS CAVOK M05/M22 Q1034 NOSIG

Decode

TAF

Not found

Departure Runways

ID Width Length Bearing (true) Bearing (mag) Surface Threshold Offset Overrun Length
18L 197 ft / 60 m 12,436 ft / 3,790 m 173.12° 180.07° Asphalt 0 ft / 0 m 197 ft / 60 m
18R 164 ft / 50 m 10,506 ft / 3,202 m 174.11° 181.06° Asphalt 0 ft / 0 m 197 ft / 60 m
36L 164 ft / 50 m 10,506 ft / 3,202 m 354.11° 1.06° Asphalt 0 ft / 0 m 197 ft / 60 m
36R 197 ft / 60 m 12,436 ft / 3,790 m 353.12° 0.07° Asphalt 0 ft / 0 m 197 ft / 60 m

ZBTJ

Details ICAO ZBTJ (TSN)
Name BINHAI
Region China
Timezone Asia/Shanghai (UTC+8.0)
Stats Elevation 10 ft / 3 m (AMSL)
Location 39.124352° 117.346182°
Runways 1
Magnetic Variation 6.947° W

METAR

ZBTJ 111330Z 03005MPS CAVOK M04/M23 Q1034 NOSIG

Decode

TAF

Not found

Destination Runways

ID Width Length Bearing (true) Bearing (mag) Surface Threshold Offset Overrun Length
16 164 ft / 50 m 10,508 ft / 3,203 m 154.55° 161.50° Concrete 0 ft / 0 m 197 ft / 60 m
34 164 ft / 50 m 10,508 ft / 3,203 m 334.56° 341.51° Concrete 0 ft / 0 m 197 ft / 60 m

Approach Navaids

Runway Type Ident Frequency Range Bearing (true) Bearing (mag) Slope Elevation
16 Localiser IJS 110.90 MHz 18 nm / 33 km 154.61° 161.56° - 7 ft / 2 m (AMSL)
16 Glidescope IJS 110.90 MHz 10 nm / 19 km 154.56° 161.50° 3.00° 36 ft / 11 m (AMSL)
16 DME IJS 110.90 MHz 18 nm / 33 km - - - 36 ft / 11 m (AMSL)
34 Localiser ICG 110.50 MHz 18 nm / 33 km 334.37° 341.31° - 7 ft / 2 m (AMSL)
34 Glidescope ICG 110.50 MHz 10 nm / 19 km 334.56° 341.50° 3.00° 10 ft / 3 m (AMSL)
34 DME ICG 110.50 MHz 18 nm / 33 km - - - 10 ft / 3 m (AMSL)

Popular Alternatives